createdAt,value
2023-05-03T00:09:02.404Z,6.32
2023-05-03T00:19:03.812Z,5.95
2023-05-03T00:29:05.146Z,6.08
2023-05-03T00:39:06.594Z,5.83
2023-05-03T00:49:08.018Z,5.70
2023-05-03T00:59:09.656Z,5.54
2023-05-03T01:09:22.919Z,5.52
2023-05-03T01:19:35.674Z,5.42
2023-05-03T01:29:37.138Z,5.69
2023-05-03T01:39:46.031Z,5.40
2023-05-03T01:49:47.742Z,5.40
2023-05-03T01:59:49.177Z,5.37
2023-05-03T02:09:50.978Z,5.36
2023-05-03T02:19:53.248Z,5.25
2023-05-03T02:29:55.218Z,5.33
2023-05-03T02:39:56.673Z,5.34
2023-05-03T02:49:58.116Z,5.36
2023-05-03T02:59:59.495Z,5.13
2023-05-03T03:10:01.441Z,4.86
2023-05-03T03:20:06.095Z,4.91
2023-05-03T03:30:08.467Z,5.09
2023-05-03T03:40:10.713Z,5.12
2023-05-03T03:50:12.167Z,5.10
2023-05-03T04:00:14.627Z,5.26
2023-05-03T04:10:16.078Z,5.47
2023-05-03T04:20:18.189Z,5.09
2023-05-03T04:30:20.002Z,5.11
2023-05-03T04:40:21.533Z,5.17
2023-05-03T04:50:22.938Z,5.25
2023-05-03T05:00:24.827Z,5.46
2023-05-03T05:10:26.505Z,5.64
2023-05-03T05:20:27.958Z,5.70
2023-05-03T05:30:29.677Z,5.88
2023-05-03T05:40:31.166Z,6.01
2023-05-03T05:50:32.938Z,6.41
2023-05-03T06:00:35.076Z,6.97
2023-05-03T06:10:36.519Z,7.46
2023-05-03T06:20:38.147Z,7.89
2023-05-03T06:30:39.673Z,8.55
2023-05-03T06:40:44.275Z,9.11
2023-05-03T06:50:45.627Z,9.52
2023-05-03T07:00:46.989Z,9.95
2023-05-03T07:10:48.334Z,10.65
2023-05-03T07:20:49.872Z,10.81
2023-05-03T07:30:52.133Z,11.04
2023-05-03T07:40:53.549Z,11.62
2023-05-03T07:50:54.959Z,12.21
2023-05-03T08:00:56.539Z,12.21
2023-05-03T08:10:58.138Z,12.77
2023-05-03T08:20:59.774Z,13.09
2023-05-03T08:31:04.699Z,13.05
2023-05-03T08:41:17.294Z,13.62
2023-05-03T08:51:19.991Z,13.36
2023-05-03T09:01:21.496Z,13.71
2023-05-03T09:11:24.985Z,13.97
2023-05-03T09:21:27.741Z,13.62
2023-05-03T09:31:30.771Z,14.05
2023-05-03T09:41:32.130Z,13.53
2023-05-03T09:51:33.967Z,13.45
2023-05-03T10:01:36.054Z,13.47
2023-05-03T10:11:37.636Z,13.20
2023-05-03T10:21:59.066Z,13.37
2023-05-03T10:32:05.449Z,12.99
2023-05-03T10:42:08.938Z,12.81
2023-05-03T10:52:35.438Z,13.18
2023-05-03T11:02:50.837Z,13.25
2023-05-03T11:12:52.303Z,13.31
2023-05-03T11:22:53.827Z,13.40
2023-05-03T11:32:56.106Z,13.38
2023-05-03T11:43:00.774Z,13.53
2023-05-03T11:53:02.240Z,13.48
2023-05-03T12:03:04.027Z,13.49
2023-05-03T12:13:06.068Z,13.66
2023-05-03T12:23:10.205Z,13.76
2023-05-03T12:33:15.220Z,13.88
2023-05-03T12:43:17.276Z,13.95
2023-05-03T12:53:18.852Z,14.14
2023-05-03T13:03:22.296Z,14.30
2023-05-03T13:13:26.035Z,14.27
2023-05-03T13:23:27.577Z,14.28
2023-05-03T13:33:29.316Z,14.38
2023-05-03T13:43:30.869Z,14.47
2023-05-03T13:53:32.296Z,14.45
2023-05-03T14:03:33.985Z,14.51
2023-05-03T14:13:53.892Z,14.73
2023-05-03T14:23:57.407Z,14.61
2023-05-03T14:34:00.064Z,14.69
2023-05-03T14:44:03.332Z,14.79
2023-05-03T14:54:04.805Z,14.81
2023-05-03T15:04:07.826Z,14.85
2023-05-03T15:14:10.034Z,14.82
2023-05-03T15:24:11.495Z,14.87
2023-05-03T15:34:13.058Z,14.81
2023-05-03T15:44:14.955Z,14.79
2023-05-03T15:54:16.405Z,14.88
2023-05-03T16:04:17.858Z,14.88
2023-05-03T16:14:19.227Z,14.92
2023-05-03T16:24:21.484Z,14.97
2023-05-03T16:34:22.965Z,14.91
2023-05-03T16:44:24.901Z,14.99
2023-05-03T16:54:26.815Z,14.96
2023-05-03T17:04:29.300Z,14.99
2023-05-03T17:14:30.824Z,15.02
2023-05-03T17:24:33.669Z,15.01
2023-05-03T17:34:36.061Z,14.94
2023-05-03T17:44:37.883Z,14.93
2023-05-03T17:54:40.669Z,14.95
2023-05-03T18:04:42.174Z,14.90
2023-05-03T18:14:43.629Z,14.76
2023-05-03T18:24:45.271Z,14.66
2023-05-03T18:34:46.703Z,14.56
2023-05-03T18:44:48.595Z,14.40
2023-05-03T18:54:50.819Z,14.28
2023-05-03T19:04:52.687Z,14.12
2023-05-03T19:14:54.317Z,13.97
2023-05-03T19:24:55.889Z,13.91
2023-05-03T19:34:57.374Z,13.71
2023-05-03T19:44:59.788Z,13.61
2023-05-03T19:55:02.788Z,13.37
2023-05-03T20:05:05.074Z,13.32
2023-05-03T20:15:07.361Z,13.23
2023-05-03T20:25:09.285Z,13.05
2023-05-03T20:35:11.982Z,13.00
2023-05-03T20:45:13.473Z,12.79
2023-05-03T20:55:15.084Z,12.72
2023-05-03T21:05:16.424Z,12.59
2023-05-03T21:15:17.801Z,12.55
2023-05-03T21:25:19.614Z,12.39
2023-05-03T21:35:21.148Z,12.17
2023-05-03T21:45:23.078Z,12.20
2023-05-03T21:55:24.777Z,12.06
2023-05-03T22:05:26.620Z,11.93
2023-05-03T22:15:31.105Z,11.87
2023-05-03T22:25:32.608Z,11.71
2023-05-03T22:35:34.067Z,11.75
2023-05-03T22:45:36.444Z,11.65
2023-05-03T22:55:38.042Z,11.56
2023-05-03T23:05:39.496Z,11.43
2023-05-03T23:15:40.979Z,11.31
2023-05-03T23:25:42.964Z,11.29
2023-05-03T23:35:44.326Z,11.22
2023-05-03T23:45:45.860Z,11.15
2023-05-03T23:55:47.593Z,11.02
